createdAt,value
2023-03-21T00:01:03.850Z,81.41
2023-03-21T00:06:11.690Z,82.14
2023-03-21T00:11:14.412Z,82.10
2023-03-21T00:16:21.406Z,81.99
2023-03-21T00:21:46.508Z,81.44
2023-03-21T00:26:53.977Z,81.71
2023-03-21T00:31:56.700Z,82.10
2023-03-21T00:37:01.560Z,82.16
2023-03-21T00:42:03.918Z,81.86
2023-03-21T00:47:08.199Z,81.65
2023-03-21T00:52:30.570Z,81.80
2023-03-21T00:57:39.005Z,82.12
2023-03-21T01:03:02.528Z,82.72
2023-03-21T01:08:20.638Z,82.62
2023-03-21T01:13:25.918Z,82.66
2023-03-21T01:18:29.979Z,82.54
2023-03-21T01:23:31.671Z,82.47
2023-03-21T01:28:34.382Z,82.61
2023-03-21T01:33:36.208Z,82.91
2023-03-21T01:38:38.089Z,82.69
2023-03-21T01:43:40.713Z,82.70
2023-03-21T01:48:44.297Z,82.60
2023-03-21T01:53:47.482Z,82.69
2023-03-21T01:58:50.944Z,82.88
2023-03-21T02:04:04.968Z,83.19
2023-03-21T02:09:31.826Z,82.99
2023-03-21T02:14:36.088Z,83.21
2023-03-21T02:20:17.621Z,83.38
2023-03-21T02:25:22.080Z,83.65
2023-03-21T02:30:56.408Z,83.89
2023-03-21T02:36:34.128Z,84.06
2023-03-21T02:41:40.634Z,84.28
2023-03-21T02:46:51.236Z,84.47
2023-03-21T02:52:08.737Z,84.44
2023-03-21T02:57:19.286Z,84.93
2023-03-21T03:02:26.212Z,84.60
2023-03-21T03:07:52.273Z,84.59
2023-03-21T03:13:09.325Z,84.75
2023-03-21T03:18:18.748Z,84.68
2023-03-21T03:23:30.614Z,84.69
2023-03-21T03:28:38.040Z,84.99
2023-03-21T03:33:48.238Z,84.94
2023-03-21T03:38:51.662Z,85.20
2023-03-21T03:43:57.869Z,85.14
2023-03-21T03:49:10.196Z,85.06
2023-03-21T03:54:21.079Z,84.86
2023-03-21T03:59:25.122Z,84.79
2023-03-21T04:04:38.247Z,85.03
2023-03-21T04:09:44.826Z,84.93
2023-03-21T04:14:49.995Z,85.07
2023-03-21T04:19:59.969Z,84.91
2023-03-21T04:25:08.025Z,84.89
2023-03-21T04:30:12.118Z,84.87
2023-03-21T04:35:37.754Z,85.17
2023-03-21T04:40:40.509Z,85.12
2023-03-21T04:45:42.792Z,85.13
2023-03-21T04:50:44.850Z,85.34
2023-03-21T04:55:46.778Z,85.21
2023-03-21T05:00:48.508Z,85.22
2023-03-21T05:05:50.808Z,85.06
2023-03-21T05:10:53.966Z,85.31
2023-03-21T05:15:56.592Z,85.16
2023-03-21T05:20:58.413Z,85.22
2023-03-21T05:26:00.976Z,85.07
2023-03-21T05:31:16.792Z,85.03
2023-03-21T05:36:20.541Z,85.22
2023-03-21T05:41:22.581Z,85.23
2023-03-21T05:46:24.673Z,85.43
2023-03-21T05:51:26.846Z,85.36
2023-03-21T05:56:28.623Z,84.96
2023-03-21T06:01:39.662Z,85.30
2023-03-21T06:06:46.956Z,85.32
2023-03-21T06:11:52.087Z,85.43
2023-03-21T06:17:02.555Z,85.50
2023-03-21T06:22:06.036Z,85.65
2023-03-21T06:27:11.295Z,85.52
2023-03-21T06:32:24.947Z,86.05
2023-03-21T06:37:32.244Z,86.26
2023-03-21T06:42:34.205Z,86.32
2023-03-21T06:47:43.263Z,86.77
2023-03-21T06:52:54.668Z,86.82
2023-03-21T06:57:57.486Z,87.16
2023-03-21T07:03:02.265Z,87.07
2023-03-21T07:08:06.180Z,87.21
2023-03-21T07:13:10.448Z,87.35
2023-03-21T07:18:17.528Z,87.22
2023-03-21T07:23:25.220Z,87.10
2023-03-21T07:28:31.901Z,86.82
2023-03-21T07:33:34.059Z,86.41
2023-03-21T07:38:36.471Z,85.64
2023-03-21T07:43:39.427Z,84.84
2023-03-21T07:48:44.553Z,84.00
2023-03-21T07:53:48.678Z,83.40
2023-03-21T07:58:50.832Z,82.31
2023-03-21T08:03:53.692Z,81.09
2023-03-21T08:08:55.387Z,80.39
2023-03-21T08:14:01.535Z,80.05
2023-03-21T08:19:03.474Z,78.77
2023-03-21T08:24:07.065Z,78.89
2023-03-21T08:29:09.105Z,77.76
2023-03-21T08:34:10.905Z,76.78
2023-03-21T08:39:12.797Z,76.53
2023-03-21T08:44:17.315Z,75.80
2023-03-21T08:49:20.053Z,75.43
2023-03-21T08:54:22.672Z,74.85
2023-03-21T08:59:24.313Z,73.54
2023-03-21T09:04:26.191Z,72.96
2023-03-21T09:09:29.021Z,71.31
2023-03-21T09:14:30.760Z,71.43
2023-03-21T09:19:32.507Z,70.55
2023-03-21T09:24:34.434Z,70.50
2023-03-21T09:29:36.460Z,69.60
2023-03-21T09:34:41.170Z,68.68
2023-03-21T09:39:44.794Z,68.70
2023-03-21T09:45:17.790Z,66.07
2023-03-21T09:50:27.219Z,66.74
2023-03-21T09:55:36.641Z,66.87
2023-03-21T10:00:46.507Z,66.42
2023-03-21T10:05:49.024Z,66.77
2023-03-21T10:10:59.364Z,66.98
2023-03-21T10:16:10.896Z,66.44
2023-03-21T10:21:47.413Z,65.12
2023-03-21T10:26:44.787Z,64.35
2023-03-21T10:31:47.350Z,64.80
2023-03-21T10:36:49.399Z,64.81
2023-03-21T10:41:51.343Z,63.88
2023-03-21T10:46:58.882Z,63.20
2023-03-21T10:52:08.823Z,62.76
2023-03-21T10:57:21.740Z,63.18
2023-03-21T11:02:35.960Z,63.02
2023-03-21T11:07:38.059Z,61.82
2023-03-21T11:12:41.425Z,62.25
2023-03-21T11:17:45.320Z,61.57
2023-03-21T11:22:48.611Z,61.04
2023-03-21T11:27:53.790Z,59.25
2023-03-21T11:32:58.140Z,59.60
2023-03-21T11:38:00.014Z,59.37
2023-03-21T11:43:24.862Z,59.23
2023-03-21T11:48:27.546Z,60.26
2023-03-21T11:53:40.467Z,60.77
2023-03-21T11:59:13.571Z,57.36
2023-03-21T12:04:18.640Z,57.11
2023-03-21T12:09:37.329Z,56.72
2023-03-21T12:14:59.258Z,57.13
2023-03-21T12:20:30.365Z,57.16
2023-03-21T12:25:42.616Z,56.61
2023-03-21T12:31:05.893Z,55.96
2023-03-21T12:36:38.273Z,56.18
2023-03-21T12:41:49.132Z,56.73
2023-03-21T12:46:58.253Z,56.37
2023-03-21T12:52:06.508Z,55.50
2023-03-21T12:57:23.327Z,56.53
2023-03-21T13:02:31.623Z,55.84
2023-03-21T13:07:38.097Z,55.15
2023-03-21T13:13:00.828Z,55.08
2023-03-21T13:18:21.054Z,55.50
2023-03-21T13:23:25.275Z,55.31
2023-03-21T13:28:35.720Z,54.01
2023-03-21T13:33:44.566Z,53.59
2023-03-21T13:38:51.681Z,53.83
2023-03-21T13:43:55.844Z,54.65
2023-03-21T13:49:00.697Z,54.00
2023-03-21T13:54:08.253Z,53.07
2023-03-21T13:59:11.191Z,53.18
2023-03-21T14:04:24.149Z,53.90
2023-03-21T14:09:41.712Z,53.03
2023-03-21T14:14:51.201Z,52.13
2023-03-21T14:19:54.931Z,52.96
2023-03-21T14:24:59.767Z,52.90
2023-03-21T14:30:03.280Z,53.46
2023-03-21T14:35:11.680Z,53.20
2023-03-21T14:40:22.607Z,53.54
2023-03-21T14:45:27.926Z,54.17
2023-03-21T14:50:49.060Z,54.42
2023-03-21T14:56:01.995Z,54.08
2023-03-21T15:01:05.185Z,54.11
2023-03-21T15:06:11.035Z,54.82
2023-03-21T15:11:13.050Z,55.35
2023-03-21T15:16:15.313Z,54.86
2023-03-21T15:21:24.694Z,54.82
2023-03-21T15:26:27.301Z,54.73
2023-03-21T15:31:34.264Z,55.35
2023-03-21T15:36:43.754Z,54.91
2023-03-21T15:42:23.307Z,55.03
2023-03-21T15:48:02.330Z,54.95
2023-03-21T15:53:16.085Z,56.15
2023-03-21T15:58:23.936Z,56.52
2023-03-21T16:03:27.237Z,56.90
2023-03-21T16:08:36.890Z,57.26
2023-03-21T16:13:38.806Z,57.82
2023-03-21T16:18:40.452Z,59.08
2023-03-21T16:23:42.248Z,58.29
2023-03-21T16:28:47.165Z,58.04
2023-03-21T16:33:49.080Z,58.43
2023-03-21T16:38:55.128Z,58.98
2023-03-21T16:43:56.796Z,59.40
2023-03-21T16:48:58.740Z,59.56
2023-03-21T16:54:01.115Z,59.34
2023-03-21T16:59:03.234Z,59.32
2023-03-21T17:04:08.595Z,59.57
2023-03-21T17:09:13.290Z,60.00
2023-03-21T17:14:21.057Z,60.87
2023-03-21T17:19:27.870Z,61.92
2023-03-21T17:24:29.713Z,62.77
2023-03-21T17:29:31.570Z,63.40
2023-03-21T17:34:33.649Z,64.01
2023-03-21T17:39:35.577Z,64.98
2023-03-21T17:44:37.230Z,66.20
2023-03-21T17:49:39.173Z,66.92
2023-03-21T17:54:41.577Z,67.63
2023-03-21T17:59:43.580Z,68.06
2023-03-21T18:04:45.450Z,68.60
2023-03-21T18:09:47.343Z,69.09
2023-03-21T18:14:49.486Z,69.69
2023-03-21T18:19:51.283Z,70.16
2023-03-21T18:24:53.473Z,70.38
2023-03-21T18:30:25.692Z,71.01
2023-03-21T18:35:19.723Z,71.43
2023-03-21T18:40:24.043Z,71.60
2023-03-21T18:45:26.696Z,71.68
2023-03-21T18:50:28.562Z,72.06
2023-03-21T18:55:45.083Z,72.58
2023-03-21T19:00:50.098Z,72.84
2023-03-21T19:05:51.956Z,73.53
2023-03-21T19:10:54.020Z,74.12
2023-03-21T19:15:56.315Z,73.96
2023-03-21T19:21:00.805Z,74.03
2023-03-21T19:26:02.709Z,74.67
2023-03-21T19:31:06.135Z,74.68
2023-03-21T19:36:17.913Z,75.05
2023-03-21T19:41:23.332Z,75.45
2023-03-21T19:46:26.382Z,75.31
2023-03-21T19:51:30.015Z,75.41
2023-03-21T19:56:34.577Z,75.37
2023-03-21T20:01:36.923Z,75.81
2023-03-21T20:06:38.996Z,75.84
2023-03-21T20:11:40.790Z,75.99
2023-03-21T20:16:43.727Z,76.34
2023-03-21T20:21:53.084Z,76.21
2023-03-21T20:26:58.281Z,76.13
2023-03-21T20:32:00.061Z,76.39
2023-03-21T20:37:03.170Z,76.43
2023-03-21T20:42:05.533Z,76.45
2023-03-21T20:47:08.263Z,76.71
2023-03-21T20:57:32.600Z,77.19
2023-03-21T21:02:34.473Z,77.05
2023-03-21T21:07:36.076Z,77.44
2023-03-21T21:12:39.437Z,77.10
2023-03-21T21:23:04.458Z,77.52
2023-03-21T21:28:09.441Z,77.32
2023-03-21T21:33:11.415Z,77.23
2023-03-21T21:38:19.213Z,77.60
2023-03-21T21:43:21.187Z,77.89
2023-03-21T21:48:23.406Z,78.30
2023-03-21T21:53:28.174Z,78.37
2023-03-21T21:58:33.783Z,78.67
2023-03-21T22:03:41.642Z,78.50
2023-03-21T22:08:46.852Z,78.49
2023-03-21T22:13:49.043Z,78.85
2023-03-21T22:18:50.748Z,78.92
2023-03-21T22:23:52.418Z,78.89
2023-03-21T22:28:54.109Z,79.25
2023-03-21T22:33:55.985Z,79.23
2023-03-21T22:38:57.994Z,79.00
2023-03-21T22:43:59.749Z,78.78
2023-03-21T22:49:01.893Z,78.53
2023-03-21T22:54:03.768Z,78.73
2023-03-21T22:59:05.628Z,78.50
2023-03-21T23:04:07.579Z,79.38
2023-03-21T23:09:10.125Z,79.98
2023-03-21T23:14:15.144Z,80.51
2023-03-21T23:19:17.382Z,80.12
2023-03-21T23:24:19.109Z,80.07
2023-03-21T23:29:20.885Z,79.90
2023-03-21T23:34:22.680Z,79.66
2023-03-21T23:39:24.521Z,79.49
2023-03-21T23:44:27.399Z,79.14
2023-03-21T23:49:33.309Z,79.28
2023-03-21T23:54:35.181Z,80.10
2023-03-21T23:59:36.884Z,80.09
